Time,TemperatureF,DewpointF,PressureIn,WindDirection,WindDirectionDegrees,WindSpeedMPH,WindSpeedGustMPH,Humidity,HourlyPrecipIn,Conditions,Clouds,dailyrainin,SoftwareType,DateUTC
2013-03-26 00:00:00,35.1,25.3,29.83,WSW,250,2.0,5.0,67,0.00,RA,,0.00,WeatherDisplay:10.37,2013-03-26 04:00:00,
2013-03-26 00:10:00,34.9,25.0,29.83,West,263,5.0,7.0,67,0.00,BKN,,0.00,WeatherDisplay:10.37,2013-03-26 04:10:00,
2013-03-26 00:20:00,34.9,25.4,29.84,WSW,251,2.0,6.0,68,0.00,BKN,,0.00,WeatherDisplay:10.37,2013-03-26 04:20:00,
2013-03-26 00:30:00,34.9,25.4,29.84,West,265,1.0,8.0,68,0.00,BKN,,0.00,WeatherDisplay:10.37,2013-03-26 04:30:00,
2013-03-26 00:40:00,34.7,25.6,29.84,WSW,237,1.0,6.0,69,0.00,BKN,,0.00,WeatherDisplay:10.37,2013-03-26 04:40:00,
2013-03-26 00:50:00,34.7,25.6,29.84,West,260,5.0,7.0,69,0.00,BKN,,0.00,WeatherDisplay:10.37,2013-03-26 04:50:00,
2013-03-26 01:00:00,34.7,25.6,29.83,WSW,253,5.0,7.0,69,0.00,BKN,,0.00,WeatherDisplay:10.37,2013-03-26 05:00:00,
2013-03-26 01:10:00,34.7,25.6,29.84,WSW,246,1.0,5.0,69,0.00,BKN,,0.00,WeatherDisplay:10.37,2013-03-26 05:10:00,
2013-03-26 01:20:00,34.7,25.5,29.84,WSW,257,2.0,5.0,69,0.00,BKN,,0.00,WeatherDisplay:10.37,2013-03-26 05:20:00,
2013-03-26 01:30:00,34.5,25.4,29.84,WSW,243,3.0,5.0,69,0.00,BKN,,0.00,WeatherDisplay:10.37,2013-03-26 05:30:00,
2013-03-26 01:40:00,34.4,25.6,29.84,WSW,251,0.0,3.0,70,0.00,BKN,,0.00,WeatherDisplay:10.37,2013-03-26 05:40:00,
2013-03-26 01:50:00,34.3,25.5,29.84,WSW,257,2.0,6.0,70,0.00,BKN,,0.00,WeatherDisplay:10.37,2013-03-26 05:50:00,
2013-03-26 02:00:00,34.2,25.0,29.84,West,268,3.0,6.0,69,0.00,BKN,,0.00,WeatherDisplay:10.37,2013-03-26 06:00:00,
2013-03-26 02:10:00,34.0,25.2,29.85,WSW,254,1.0,5.0,70,0.00,OVC,,0.00,WeatherDisplay:10.37,2013-03-26 06:10:00,
2013-03-26 02:20:00,33.9,25.1,29.85,WSW,254,1.0,5.0,70,0.00,OVC,,0.00,WeatherDisplay:10.37,2013-03-26 06:20:00,
2013-03-26 02:30:00,33.8,25.0,29.85,WSW,241,1.0,5.0,70,0.00,OVC,,0.00,WeatherDisplay:10.37,2013-03-26 06:30:00,
2013-03-26 02:40:00,33.8,25.0,29.85,West,265,2.0,5.0,70,0.00,OVC,,0.00,WeatherDisplay:10.37,2013-03-26 06:40:00,
2013-03-26 02:50:00,33.8,25.1,29.86,WSW,242,2.0,5.0,70,0.00,OVC,,0.00,WeatherDisplay:10.37,2013-03-26 06:50:00,
2013-03-26 03:00:00,33.8,25.0,29.85,WSW,253,1.0,6.0,70,0.00,OVC,,0.00,WeatherDisplay:10.37,2013-03-26 07:00:00,
2013-03-26 03:10:00,33.6,24.9,29.85,WSW,249,1.0,2.0,70,0.00,OVC,,0.00,WeatherDisplay:10.37,2013-03-26 07:10:00,
2013-03-26 03:20:00,33.4,24.7,29.85,WSW,247,1.0,5.0,70,0.00,OVC,,0.00,WeatherDisplay:10.37,2013-03-26 07:20:00,
2013-03-26 03:30:00,33.4,25.0,29.86,WSW,254,1.0,5.0,71,0.00,OVC,,0.00,WeatherDisplay:10.37,2013-03-26 07:30:00,
2013-03-26 03:40:00,33.4,25.0,29.86,WSW,246,2.0,6.0,71,0.00,OVC,,0.00,WeatherDisplay:10.37,2013-03-26 07:40:00,
2013-03-26 03:50:00,33.4,25.0,29.86,WSW,251,1.0,5.0,71,0.00,OVC,,0.00,WeatherDisplay:10.37,2013-03-26 07:50:00,
2013-03-26 04:00:00,33.4,25.0,29.86,WSW,238,2.0,5.0,71,0.00,OVC,,0.00,WeatherDisplay:10.37,2013-03-26 08:00:00,
2013-03-26 04:10:00,33.4,24.7,29.86,West,259,3.0,5.0,70,0.00,OVC,,0.00,WeatherDisplay:10.37,2013-03-26 08:10:00,
2013-03-26 04:20:00,33.4,25.0,29.85,West,262,1.0,5.0,71,0.00,OVC,,0.00,WeatherDisplay:10.37,2013-03-26 08:20:00,
2013-03-26 04:30:00,33.4,25.0,29.86,WSW,255,2.0,5.0,71,0.00,OVC,,0.00,WeatherDisplay:10.37,2013-03-26 08:30:00,
2013-03-26 04:40:00,33.4,25.0,29.86,WSW,251,3.0,5.0,71,0.00,OVC,,0.00,WeatherDisplay:10.37,2013-03-26 08:40:00,
2013-03-26 04:50:00,33.4,25.0,29.86,West,262,1.0,4.0,71,0.00,OVC,,0.00,WeatherDisplay:10.37,2013-03-26 08:50:00,
2013-03-26 05:00:00,33.4,24.7,29.86,West,267,2.0,7.0,70,0.00,OVC,,0.00,WeatherDisplay:10.37,2013-03-26 09:00:00,
2013-03-26 05:10:00,33.5,24.8,29.86,WSW,250,2.0,5.0,70,0.00,OVC,,0.00,WeatherDisplay:10.37,2013-03-26 09:10:00,
2013-03-26 05:20:00,33.6,24.9,29.86,WSW,244,1.0,5.0,70,0.00,OVC,,0.00,WeatherDisplay:10.37,2013-03-26 09:20:00,
2013-03-26 05:30:00,33.4,24.7,29.86,WSW,255,1.0,3.0,70,0.00,OVC,,0.00,WeatherDisplay:10.37,2013-03-26 09:30:00,
2013-03-26 05:40:00,33.4,25.0,29.87,West,265,0.0,3.0,71,0.00,OVC,,0.00,WeatherDisplay:10.37,2013-03-26 09:40:00,
2013-03-26 05:50:00,33.4,25.0,29.87,WSW,237,0.0,2.0,71,0.00,OVC,,0.00,WeatherDisplay:10.37,2013-03-26 09:50:00,
2013-03-26 06:00:00,33.4,25.0,29.87,WSW,242,0.0,2.0,71,0.00,OVC,,0.00,WeatherDisplay:10.37,2013-03-26 10:00:00,
2013-03-26 06:10:00,33.4,25.0,29.87,WSW,245,1.0,2.0,71,0.00,OVC,,0.00,WeatherDisplay:10.37,2013-03-26 10:10:00,
2013-03-26 06:20:00,33.4,25.0,29.88,WSW,254,0.0,2.0,71,0.00,OVC,,0.00,WeatherDisplay:10.37,2013-03-26 10:20:00,
2013-03-26 06:30:00,33.1,24.7,29.88,West,263,1.0,2.0,71,0.00,OVC,,0.00,WeatherDisplay:10.37,2013-03-26 10:30:00,
2013-03-26 06:40:00,32.9,24.9,29.88,West,264,0.0,2.0,72,0.00,OVC,,0.00,WeatherDisplay:10.37,2013-03-26 10:40:00,
2013-03-26 06:50:00,32.7,24.7,29.88,SW,230,0.0,2.0,72,0.00,OVC,,0.00,WeatherDisplay:10.37,2013-03-26 10:50:00,
2013-03-26 07:00:00,32.5,24.5,29.88,WSW,244,1.0,2.0,72,0.00,OVC,,0.00,WeatherDisplay:10.37,2013-03-26 11:00:00,
2013-03-26 07:10:00,32.4,24.3,29.89,WSW,254,0.0,2.0,72,0.00,OVC,,0.00,WeatherDisplay:10.37,2013-03-26 11:10:00,
2013-03-26 07:20:00,32.0,24.3,29.89,West,276,0.0,3.0,73,0.00,BKN,,0.00,WeatherDisplay:10.37,2013-03-26 11:20:00,
2013-03-26 07:30:00,32.0,24.3,29.89,West,276,0.0,2.0,73,0.00,BKN,,0.00,WeatherDisplay:10.37,2013-03-26 11:30:00,
2013-03-26 07:40:00,32.0,24.3,29.89,WSW,257,0.0,2.0,73,0.00,BKN,,0.00,WeatherDisplay:10.37,2013-03-26 11:40:00,
2013-03-26 07:50:00,31.8,24.1,29.90,West,263,0.0,3.0,73,0.00,BKN,,0.00,WeatherDisplay:10.37,2013-03-26 11:50:00,
2013-03-26 08:00:00,31.8,24.5,29.90,West,272,1.0,2.0,74,0.00,BKN,,0.00,WeatherDisplay:10.37,2013-03-26 12:00:00,
2013-03-26 08:10:00,32.1,24.7,29.91,WSW,256,1.0,3.0,74,0.00,BKN,,0.00,WeatherDisplay:10.37,2013-03-26 12:10:00,
2013-03-26 08:20:00,32.7,25.3,29.91,West,261,1.0,3.0,74,0.00,SCT,,0.00,WeatherDisplay:10.37,2013-03-26 12:20:00,
2013-03-26 08:30:00,33.1,25.4,29.91,West,275,1.0,3.0,73,0.00,SCT,,0.00,WeatherDisplay:10.37,2013-03-26 12:30:00,
2013-03-26 08:40:00,34.0,26.2,29.92,WSW,250,2.0,5.0,73,0.00,SCT,,0.00,WeatherDisplay:10.37,2013-03-26 12:40:00,
2013-03-26 08:50:00,34.7,26.6,29.92,West,262,2.0,5.0,72,0.00,SCT,,0.00,WeatherDisplay:10.37,2013-03-26 12:50:00,
2013-03-26 09:00:00,35.6,27.1,29.93,WNW,296,2.0,5.0,71,0.00,SCT,,0.00,WeatherDisplay:10.37,2013-03-26 13:00:00,
2013-03-26 09:10:00,36.5,27.3,29.93,WNW,282,2.0,5.0,69,0.00,FEW,,0.00,WeatherDisplay:10.37,2013-03-26 13:10:00,
2013-03-26 09:20:00,37.4,27.4,29.93,West,278,3.0,6.0,67,0.00,FEW,,0.00,WeatherDisplay:10.37,2013-03-26 13:20:00,
2013-03-26 09:30:00,38.3,28.3,29.93,WSW,256,3.0,7.0,67,0.00,FEW,,0.00,WeatherDisplay:10.37,2013-03-26 13:30:00,
2013-03-26 09:40:00,39.3,28.2,29.94,WNW,284,3.0,6.0,64,0.00,FEW,,0.00,WeatherDisplay:10.37,2013-03-26 13:40:00,
2013-03-26 09:50:00,40.3,28.7,29.93,WNW,297,3.0,5.0,63,0.00,FEW,,0.00,WeatherDisplay:10.37,2013-03-26 13:50:00,
2013-03-26 10:00:00,41.4,29.3,29.94,WNW,293,2.0,7.0,62,0.00,FEW,,0.00,WeatherDisplay:10.37,2013-03-26 14:00:00,
2013-03-26 10:10:00,42.3,29.4,29.93,West,268,3.0,7.0,60,0.00,FEW,,0.00,WeatherDisplay:10.37,2013-03-26 14:10:00,
2013-03-26 10:20:00,42.8,29.9,29.93,WNW,287,3.0,6.0,60,0.00,FEW,,0.00,WeatherDisplay:10.37,2013-03-26 14:20:00,
2013-03-26 10:30:00,43.9,30.5,29.94,WNW,303,3.0,7.0,59,0.00,FEW,,0.00,WeatherDisplay:10.37,2013-03-26 14:30:00,
2013-03-26 10:40:00,44.7,30.4,29.93,West,280,5.0,8.0,57,0.00,FEW,,0.00,WeatherDisplay:10.37,2013-03-26 14:40:00,
2013-03-26 10:50:00,45.0,30.2,29.94,WNW,288,5.0,9.0,56,0.00,FEW,,0.00,WeatherDisplay:10.37,2013-03-26 14:50:00,
2013-03-26 11:00:00,45.6,29.5,29.95,WNW,297,3.0,7.0,53,0.00,FEW,,0.00,WeatherDisplay:10.37,2013-03-26 15:00:00,
2013-03-26 11:10:00,45.7,29.6,29.95,NW,304,5.0,9.0,53,0.00,FEW,,0.00,WeatherDisplay:10.37,2013-03-26 15:10:00,
2013-03-26 11:20:00,45.7,29.0,29.95,NW,326,3.0,8.0,52,0.00,BKN,,0.00,WeatherDisplay:10.37,2013-03-26 15:20:00,
2013-03-26 11:30:00,46.0,28.9,29.95,WNW,296,5.0,6.0,51,0.00,BKN,,0.00,WeatherDisplay:10.37,2013-03-26 15:30:00,
2013-03-26 11:40:00,45.7,28.6,29.95,WNW,294,8.0,10.0,51,0.00,BKN,,0.00,WeatherDisplay:10.37,2013-03-26 15:40:00,
2013-03-26 11:50:00,45.5,28.4,29.95,WNW,285,3.0,9.0,51,0.00,BKN,,0.00,WeatherDisplay:10.37,2013-03-26 15:50:00,
2013-03-26 12:00:00,45.6,29.0,29.95,NW,307,6.0,8.0,52,0.00,BKN,,0.00,WeatherDisplay:10.37,2013-03-26 16:00:00,
2013-03-26 12:10:00,45.3,28.7,29.96,WNW,289,3.0,10.0,52,0.00,BKN,,0.00,WeatherDisplay:10.37,2013-03-26 16:10:00,
2013-03-26 12:20:00,45.5,29.3,29.96,WNW,288,5.0,8.0,53,0.00,BKN,,0.00,WeatherDisplay:10.37,2013-03-26 16:20:00,
2013-03-26 12:30:00,45.5,28.9,29.96,NNW,328,2.0,6.0,52,0.00,BKN,,0.00,WeatherDisplay:10.37,2013-03-26 16:30:00,
2013-03-26 12:40:00,45.5,28.4,29.96,West,281,6.0,10.0,51,0.00,BKN,,0.00,WeatherDisplay:10.37,2013-03-26 16:40:00,
2013-03-26 12:50:00,45.0,28.4,29.96,NW,306,7.0,10.0,52,0.00,BKN,,0.00,WeatherDisplay:10.37,2013-03-26 16:50:00,
2013-03-26 13:00:00,44.5,28.0,29.96,West,265,5.0,8.0,52,0.00,BKN,,0.00,WeatherDisplay:10.37,2013-03-26 17:00:00,
2013-03-26 13:10:00,44.2,28.2,29.97,West,274,3.0,10.0,53,0.00,OVC,,0.00,WeatherDisplay:10.37,2013-03-26 17:10:00,
2013-03-26 13:20:00,44.5,27.9,29.97,WNW,283,7.0,9.0,52,0.00,OVC,,0.00,WeatherDisplay:10.37,2013-03-26 17:20:00,
2013-03-26 13:30:00,44.6,28.0,29.97,WNW,299,5.0,8.0,52,0.00,OVC,,0.00,WeatherDisplay:10.37,2013-03-26 17:30:00,
2013-03-26 13:40:00,44.6,27.6,29.97,WNW,294,3.0,6.0,51,0.00,OVC,,0.00,WeatherDisplay:10.37,2013-03-26 17:40:00,
2013-03-26 13:50:00,44.6,27.1,29.97,WNW,296,6.0,10.0,50,0.00,OVC,,0.00,WeatherDisplay:10.37,2013-03-26 17:50:00,
2013-03-26 14:00:00,45.2,28.6,29.97,NW,305,3.0,6.0,52,0.00,OVC,,0.00,WeatherDisplay:10.37,2013-03-26 18:00:00,
2013-03-26 14:10:00,45.5,27.9,29.96,WNW,302,6.0,8.0,50,0.00,OVC,,0.00,WeatherDisplay:10.37,2013-03-26 18:10:00,
2013-03-26 14:20:00,45.3,27.8,29.96,NW,320,3.0,8.0,50,0.00,OVC,,0.00,WeatherDisplay:10.37,2013-03-26 18:20:00,
2013-03-26 14:30:00,45.3,27.8,29.96,West,278,6.0,9.0,50,0.00,OVC,,0.00,WeatherDisplay:10.37,2013-03-26 18:30:00,
2013-03-26 14:40:00,45.3,27.8,29.97,NW,306,5.0,10.0,50,0.00,OVC,,0.00,WeatherDisplay:10.37,2013-03-26 18:40:00,
2013-03-26 14:50:00,45.3,27.8,29.97,NW,308,8.0,9.0,50,0.00,OVC,,0.00,WeatherDisplay:10.37,2013-03-26 18:50:00,
2013-03-26 15:00:00,45.1,28.1,29.97,NW,309,3.0,8.0,51,0.00,OVC,,0.00,WeatherDisplay:10.37,2013-03-26 19:00:00,
2013-03-26 15:10:00,45.1,27.0,29.97,NW,308,5.0,9.0,49,0.00,OVC,,0.00,WeatherDisplay:10.37,2013-03-26 19:10:00,
2013-03-26 15:20:00,45.0,27.9,29.97,NW,311,3.0,8.0,51,0.00,OVC,,0.00,WeatherDisplay:10.37,2013-03-26 19:20:00,
2013-03-26 15:30:00,45.0,27.4,29.97,NW,323,5.0,8.0,50,0.00,OVC,,0.00,WeatherDisplay:10.37,2013-03-26 19:30:00,
2013-03-26 15:40:00,45.3,27.8,29.97,WNW,294,6.0,10.0,50,0.00,OVC,,0.00,WeatherDisplay:10.37,2013-03-26 19:40:00,
2013-03-26 15:50:00,45.4,27.8,29.97,NW,318,6.0,7.0,50,0.00,OVC,,0.00,WeatherDisplay:10.37,2013-03-26 19:50:00,
2013-03-26 16:00:00,45.3,27.8,29.97,WNW,286,6.0,9.0,50,0.00,OVC,,0.00,WeatherDisplay:10.37,2013-03-26 20:00:00,
2013-03-26 16:10:00,45.4,26.9,29.98,NW,312,3.0,8.0,48,0.00,OVC,,0.00,WeatherDisplay:10.37,2013-03-26 20:10:00,
2013-03-26 16:20:00,45.4,26.8,29.98,NW,309,5.0,9.0,48,0.00,OVC,,0.00,WeatherDisplay:10.37,2013-03-26 20:20:00,
2013-03-26 16:30:00,45.0,26.5,29.98,NW,321,3.0,9.0,48,0.00,OVC,,0.00,WeatherDisplay:10.37,2013-03-26 20:30:00,
2013-03-26 16:40:00,45.2,27.1,29.98,NW,310,5.0,8.0,49,0.00,OVC,,0.00,WeatherDisplay:10.37,2013-03-26 20:40:00,
2013-03-26 16:50:00,45.2,27.1,29.98,NW,305,3.0,9.0,49,0.00,OVC,,0.00,WeatherDisplay:10.37,2013-03-26 20:50:00,
2013-03-26 17:00:00,45.3,26.3,29.99,WNW,300,7.0,8.0,47,0.00,OVC,,0.00,WeatherDisplay:10.37,2013-03-26 21:00:00,
2013-03-26 17:10:00,45.3,26.8,29.99,WNW,287,5.0,8.0,48,0.00,BKN,,0.00,WeatherDisplay:10.37,2013-03-26 21:10:00,
2013-03-26 17:20:00,45.5,26.9,29.99,NW,305,3.0,6.0,48,0.00,BKN,,0.00,WeatherDisplay:10.37,2013-03-26 21:20:00,
2013-03-26 17:30:00,45.5,27.4,30.00,WNW,296,5.0,7.0,49,0.00,BKN,,0.00,WeatherDisplay:10.37,2013-03-26 21:30:00,
2013-03-26 17:40:00,45.4,26.8,30.00,NW,304,8.0,10.0,48,0.00,BKN,,0.00,WeatherDisplay:10.37,2013-03-26 21:40:00,
2013-03-26 17:50:00,45.0,26.4,30.01,NW,304,7.0,12.0,48,0.00,BKN,,0.00,WeatherDisplay:10.37,2013-03-26 21:50:00,
2013-03-26 18:00:00,44.7,26.2,30.01,WNW,301,3.0,10.0,48,0.00,BKN,,0.00,WeatherDisplay:10.37,2013-03-26 22:00:00,
2013-03-26 18:10:00,44.6,26.6,30.01,WNW,303,5.0,8.0,49,0.00,BKN,,0.00,WeatherDisplay:10.37,2013-03-26 22:10:00,
2013-03-26 18:20:00,44.4,26.4,30.02,WNW,299,6.0,7.0,49,0.00,BKN,,0.00,WeatherDisplay:10.37,2013-03-26 22:20:00,
2013-03-26 18:30:00,44.2,26.3,30.02,WNW,294,5.0,8.0,49,0.00,BKN,,0.00,WeatherDisplay:10.37,2013-03-26 22:30:00,
2013-03-26 18:40:00,44.1,26.6,30.02,WNW,295,3.0,8.0,50,0.00,BKN,,0.00,WeatherDisplay:10.37,2013-03-26 22:40:00,
2013-03-26 18:50:00,43.9,25.9,30.02,WNW,303,6.0,9.0,49,0.00,BKN,,0.00,WeatherDisplay:10.37,2013-03-26 22:50:00,
2013-03-26 19:00:00,43.7,26.3,30.03,NW,306,2.0,9.0,50,0.00,BKN,,0.00,WeatherDisplay:10.37,2013-03-26 23:00:00,
2013-03-26 19:10:00,43.6,25.7,30.04,NW,307,3.0,6.0,49,0.00,BKN,,0.00,WeatherDisplay:10.37,2013-03-26 23:10:00,
2013-03-26 19:20:00,43.4,25.0,30.04,WNW,297,5.0,10.0,48,0.00,BKN,,0.00,WeatherDisplay:10.37,2013-03-26 23:20:00,
2013-03-26 19:30:00,43.2,24.8,30.05,WNW,292,6.0,9.0,48,0.00,BKN,,0.00,WeatherDisplay:10.37,2013-03-26 23:30:00,
2013-03-26 19:40:00,42.9,25.0,30.05,NW,315,5.0,9.0,49,0.00,BKN,,0.00,WeatherDisplay:10.37,2013-03-26 23:40:00,
2013-03-26 19:50:00,42.8,25.4,30.06,WNW,299,3.0,10.0,50,0.00,BKN,,0.00,WeatherDisplay:10.37,2013-03-26 23:50:00,
2013-03-26 20:00:00,42.4,25.6,30.06,WNW,299,5.0,9.0,51,0.00,BKN,,0.00,WeatherDisplay:10.37,2013-03-27 00:00:00,
2013-03-26 20:10:00,42.1,25.2,30.07,WNW,300,3.0,8.0,51,0.00,BKN,,0.00,WeatherDisplay:10.37,2013-03-27 00:10:00,
2013-03-26 20:20:00,41.7,24.9,30.07,WNW,301,3.0,6.0,51,0.00,SCT,,0.00,WeatherDisplay:10.37,2013-03-27 00:20:00,
2013-03-26 20:30:00,41.4,24.6,30.07,WNW,300,6.0,7.0,51,0.00,SCT,,0.00,WeatherDisplay:10.37,2013-03-27 00:30:00,
2013-03-26 20:40:00,41.3,25.5,30.08,NW,308,5.0,8.0,53,0.00,SCT,,0.00,WeatherDisplay:10.37,2013-03-27 00:40:00,
2013-03-26 20:50:00,41.0,25.2,30.08,West,280,5.0,6.0,53,0.00,SCT,,0.00,WeatherDisplay:10.37,2013-03-27 00:50:00,
2013-03-26 21:00:00,40.6,25.7,30.09,WNW,285,5.0,8.0,55,0.00,SCT,,0.00,WeatherDisplay:10.37,2013-03-27 01:00:00,
2013-03-26 21:10:00,40.3,25.4,30.09,West,280,5.0,6.0,55,0.00,CLR,,0.00,WeatherDisplay:10.37,2013-03-27 01:10:00,
2013-03-26 21:20:00,39.9,25.5,30.10,West,273,2.0,7.0,56,0.00,CLR,,0.00,WeatherDisplay:10.37,2013-03-27 01:20:00,
2013-03-26 21:30:00,39.7,25.7,30.10,WNW,288,5.0,7.0,57,0.00,CLR,,0.00,WeatherDisplay:10.37,2013-03-27 01:30:00,
2013-03-26 21:40:00,39.6,25.6,30.10,NW,307,2.0,9.0,57,0.00,CLR,,0.00,WeatherDisplay:10.37,2013-03-27 01:40:00,
2013-03-26 21:50:00,39.4,25.4,30.11,WNW,296,2.0,8.0,57,0.00,CLR,,0.00,WeatherDisplay:10.37,2013-03-27 01:50:00,
2013-03-26 22:00:00,39.2,25.2,30.12,WNW,290,5.0,8.0,57,0.00,CLR,,0.00,WeatherDisplay:10.37,2013-03-27 02:00:00,
2013-03-26 22:10:00,39.0,25.4,30.12,WNW,290,5.0,8.0,58,0.00,CLR,,0.00,WeatherDisplay:10.37,2013-03-27 02:10:00,
2013-03-26 22:20:00,38.8,25.7,30.13,WNW,295,2.0,6.0,59,0.00,CLR,,0.00,WeatherDisplay:10.37,2013-03-27 02:20:00,
2013-03-26 22:30:00,38.5,25.4,30.13,West,270,3.0,7.0,59,0.00,CLR,,0.00,WeatherDisplay:10.37,2013-03-27 02:30:00,
2013-03-26 22:40:00,38.4,25.7,30.13,West,276,1.0,5.0,60,0.00,CLR,,0.00,WeatherDisplay:10.37,2013-03-27 02:40:00,
2013-03-26 22:50:00,37.9,25.3,30.13,West,272,1.0,3.0,60,0.00,CLR,,0.00,WeatherDisplay:10.37,2013-03-27 02:50:00,
2013-03-26 23:00:00,37.8,25.5,30.14,West,270,1.0,6.0,61,0.00,CLR,,0.00,WeatherDisplay:10.37,2013-03-27 03:00:00,
2013-03-26 23:10:00,37.4,24.8,30.13,West,272,1.0,5.0,60,0.00,CLR,,0.00,WeatherDisplay:10.37,2013-03-27 03:10:00,
2013-03-26 23:20:00,37.1,24.5,30.14,WSW,257,1.0,4.0,60,0.00,CLR,,0.00,WeatherDisplay:10.37,2013-03-27 03:20:00,
2013-03-26 23:30:00,36.9,24.7,30.14,WSW,249,2.0,5.0,61,0.00,CLR,,0.00,WeatherDisplay:10.37,2013-03-27 03:30:00,
2013-03-26 23:40:00,36.5,24.3,30.14,West,269,0.0,5.0,61,0.00,CLR,,0.00,WeatherDisplay:10.37,2013-03-27 03:40:00,
2013-03-26 23:50:00,36.3,24.5,30.14,WNW,294,2.0,4.0,62,0.00,CLR,,0.00,WeatherDisplay:10.37,2013-03-27 03:50:00,